Flight Track Log - Related Links

Times and Time Zones

All times are in EDT time to prevent confusion due to time zone crossing. See the EGF3222 flight status page for this flight to view local times or setup timezone preferences in your user account.

Time Position Orientation Groundspeed Altitude Reporting Facility
EDT Latitude Longitude Course Direction KTS MPH feet Rate Location/Type
Thu 09:51:27 AM 32.8833 -97.0333 357° North 167 192 1,600  Level Dallas / Fort Worth TRACON
Thu 09:52:28 AM 32.8333 -97.0167 164° South 210 242 4,100 2,380 Climbing Dallas / Fort Worth TRACON
Thu 09:53:00 AM 32.8310 -96.8038 10° North  Level FlightAware Approximate
Thu 09:53:28 AM 32.7833 -96.9833 151° Southeast 244 281 6,400  Level Dallas / Fort Worth TRACON
Thu 09:54:00 AM 32.9467 -96.8000 North  Level FlightAware Approximate
Thu 09:54:29 AM 32.7667 -96.9000 103° East 278 320 8,500  Level Dallas / Fort Worth TRACON
Thu 09:55:00 AM 33.0626 -96.8000 North  Level FlightAware Approximate
Thu 09:56:00 AM 33.1784 -96.8070 357° North  Level FlightAware Approximate
Thu 09:56:18 AM 32.8800 -96.8097 34° Northeast 279 321 11,700  Level Fort Worth Center
Thu 09:57:18 AM 32.9656 -96.8117 359° North 303 349 13,100 1,500 Climbing Fort Worth Center
Thu 09:58:18 AM 33.0742 -96.8136 359° North 336 387 14,700 1,488 Climbing Fort Worth Center
Thu 09:59:19 AM 33.1681 -96.8153 359° North 362 417 16,100 1,600 Climbing Fort Worth Center
Thu 10:00:18 AM 33.2786 -96.8194 358° North 362 417 17,900 1,462 Climbing Fort Worth Center
Thu 10:01:18 AM 33.3683 -96.8214 359° North 364 419 19,000 1,450 Climbing Fort Worth Center
Thu 10:02:18 AM 33.4811 -96.8083 North 364 419 20,800 1,650 Climbing Fort Worth Center
Thu 10:03:18 AM 33.5664 -96.7528 28° Northeast 380 437 22,300 1,100 Climbing Fort Worth Center
Thu 10:04:18 AM 33.6744 -96.6797 29° Northeast 391 450 23,000 347 Climbing Fort Worth Center
Thu 10:05:19 AM 33.7744 -96.6164 28° Northeast 422 486 23,000  Level Fort Worth Center
Thu 10:06:18 AM 33.8867 -96.5453 28° Northeast 437 503 23,000 555 Level Fort Worth Center
Thu 10:07:18 AM 33.9925 -96.4767 28° Northeast 442 509 24,100 1,150 Climbing Fort Worth Center
Thu 10:08:18 AM 34.0900 -96.4128 28° Northeast 437 503 25,300 1,400 Climbing Fort Worth Center
Thu 10:09:18 AM 34.1917 -96.3239 36° Northeast 420 483 26,900 1,500 Climbing Fort Worth Center
Thu 10:10:18 AM 34.2911 -96.2472 32° Northeast 420 483 28,300 1,400 Climbing Fort Worth Center
Thu 10:11:18 AM 34.3883 -96.1603 36° Northeast 420 483 29,700 1,400 Climbing Fort Worth Center
Thu 10:12:18 AM 34.4856 -96.0833 33° Northeast 420 483 31,100 1,350 Climbing Fort Worth Center
Thu 10:13:18 AM 34.5847 -95.9986 35° Northeast 420 483 32,400 1,250 Climbing Fort Worth Center
Thu 10:14:18 AM 34.6861 -95.9161 34° Northeast 425 489 33,600 1,100 Climbing Fort Worth Center
Thu 10:15:18 AM 34.7894 -95.8333 33° Northeast 432 497 34,600 700 Climbing Fort Worth Center
Thu 10:16:18 AM 34.9133 -95.7450 30° Northeast 444 511 35,000 200 Climbing Fort Worth Center
Thu 10:17:18 AM 35.0269 -95.6692 29° Northeast 454 522 35,000  Level Fort Worth Center
Thu 10:18:18 AM 35.1408 -95.5933 29° Northeast 459 528 35,000 318 Level Fort Worth Center
Thu 10:20:08 AM 35.3428 -95.4556 29° Northeast 460 529 35,900 596 Climbing Kansas City Center
Thu 10:21:09 AM 35.4589 -95.3808 28° Northeast 469 540 36,700 545 Climbing Memphis Center
Thu 10:22:09 AM 35.5725 -95.3061 28° Northeast 464 534 37,000 150 Climbing Memphis Center
Thu 10:23:09 AM 35.6839 -95.2311 29° Northeast 464 534 37,000  Level Memphis Center
Thu 10:24:15 AM 35.7919 -95.1550 30° Northeast 459 528 37,000  Level Kansas City Center
Thu 10:25:19 AM 35.9039 -95.0792 29° Northeast 459 528 37,000  Level Kansas City Center
Thu 10:26:22 AM 36.0378 -94.9875 29° Northeast 460 529 37,000  Level Kansas City Center
Thu 10:27:23 AM 36.1511 -94.9117 28° Northeast 463 533 37,000  Level Kansas City Center
Thu 10:28:24 AM 36.2631 -94.8347 29° Northeast 464 534 37,000  Level Kansas City Center
Thu 10:29:28 AM 36.3742 -94.7575 29° Northeast 461 531 37,000  Level Kansas City Center
Thu 10:30:27 AM 36.4833 -94.6828 29° Northeast 454 522 37,000  Level Kansas City Center
Thu 10:31:31 AM 36.6153 -94.5919 29° Northeast 453 521 37,000  Level Kansas City Center
Thu 10:32:31 AM 36.7258 -94.5156 29° Northeast 454 522 37,000  Level Kansas City Center
Thu 10:33:35 AM 36.8372 -94.4367 30° Northeast 459 528 37,000  Level Kansas City Center
Thu 10:34:35 AM 36.9481 -94.3578 30° Northeast 458 527 37,000  Level Kansas City Center
Thu 10:35:36 AM 37.0578 -94.2733 32° Northeast 461 531 37,000  Level Kansas City Center
Thu 10:36:41 AM 37.1672 -94.1914 31° Northeast 459 528 37,000  Level Kansas City Center
Thu 10:37:41 AM 37.2758 -94.1081 31° Northeast 457 526 37,000  Level Kansas City Center
Thu 10:38:45 AM 37.3978 -94.0169 31° Northeast 460 529 37,000  Level Kansas City Center
Thu 10:39:45 AM 37.5069 -93.9336 31° Northeast 458 527 37,000  Level Kansas City Center
Thu 10:40:48 AM 37.6172 -93.8500 31° Northeast 459 528 37,000  Level Kansas City Center
Thu 10:41:51 AM 37.7267 -93.7667 31° Northeast 457 526 37,000  Level Kansas City Center
Thu 10:42:51 AM 37.8581 -93.6653 31° Northeast 458 527 37,000  Level Kansas City Center
Thu 10:43:52 AM 37.9667 -93.5808 31° Northeast 457 526 37,000  Level Kansas City Center
Thu 10:44:56 AM 38.0747 -93.4969 31° Northeast 453 521 37,000  Level Kansas City Center
Thu 10:45:57 AM 38.1828 -93.4128 31° Northeast 452 520 37,000  Level Kansas City Center
Thu 10:46:59 AM 38.2897 -93.3292 32° Northeast 450 518 37,000  Level Kansas City Center
Thu 10:48:01 AM 38.3956 -93.2458 32° Northeast 446 513 37,000  Level Kansas City Center
Thu 10:49:04 AM 38.5014 -93.1611 32° Northeast 445 512 37,000  Level Kansas City Center
Thu 10:50:07 AM 38.6075 -93.0775 32° Northeast 445 512 37,000  Level Kansas City Center
Thu 10:51:07 AM 38.7375 -92.9736 32° Northeast 450 518 37,000  Level Kansas City Center
Thu 10:52:11 AM 38.8425 -92.8878 32° Northeast 446 513 37,000  Level Kansas City Center
Thu 10:53:12 AM 38.9503 -92.8025 32° Northeast 449 517 37,000  Level Kansas City Center
Thu 10:54:15 AM 39.0556 -92.7183 32° Northeast 446 513 37,000  Level Kansas City Center
Thu 10:55:15 AM 39.1600 -92.6339 32° Northeast 442 509 37,000  Level Kansas City Center
Thu 10:56:19 AM 39.2706 -92.5444 32° Northeast 441 507 37,000  Level Kansas City Center
Thu 10:57:20 AM 39.3736 -92.4628 31° Northeast 439 505 37,000  Level Kansas City Center
Thu 10:58:20 AM 39.4764 -92.3800 32° Northeast 439 505 37,000  Level Kansas City Center
Thu 10:59:25 AM 39.5803 -92.2958 32° Northeast 442 509 37,000  Level Kansas City Center
Thu 11:00:26 AM 39.7064 -92.1917 32° Northeast 448 516 37,000  Level Kansas City Center
Thu 11:01:27 AM 39.8108 -92.1056 32° Northeast 450 518 37,000  Level Kansas City Center
Thu 11:02:30 AM 39.9136 -92.0189 33° Northeast 448 516 37,000  Level Kansas City Center
Thu 11:03:31 AM 40.0167 -91.9344 32° Northeast 445 512 37,000  Level Kansas City Center
Thu 11:04:35 AM 40.1419 -91.8311 32° Northeast 447 514 37,000  Level Kansas City Center
Thu 11:05:36 AM 40.2439 -91.7453 33° Northeast 444 511 37,000  Level Kansas City Center
Thu 11:06:37 AM 40.3456 -91.6583 33° Northeast 440 506 37,000  Level Kansas City Center
Thu 11:07:21 AM 40.4294 -91.5889 32° Northeast 445 512 37,000  Level Chicago Center
Thu 11:08:22 AM 40.5325 -91.5014 33° Northeast 446 513 37,000  Level Chicago Center
Thu 11:09:24 AM 40.6353 -91.4142 33° Northeast 445 512 37,000  Level Chicago Center
Thu 11:10:26 AM 40.7375 -91.3272 33° Northeast 442 509 37,000 -677 Level Chicago Center
Thu 11:11:28 AM 40.8558 -91.2267 33° Northeast 442 509 35,600 -968 Descending Chicago Center
Thu 11:12:30 AM 40.9592 -91.1392 33° Northeast 439 505 35,000 -290 Descending Chicago Center
Thu 11:13:32 AM 41.0614 -91.0508 33° Northeast 438 504 35,000  Level Chicago Center
Thu 11:14:33 AM 41.1647 -90.9608 33° Northeast 441 507 35,000 -195 Level Chicago Center
Thu 11:15:35 AM 41.2678 -90.8703 33° Northeast 444 511 34,600 -581 Descending Chicago Center
Thu 11:16:37 AM 41.3689 -90.7828 33° Northeast 437 503 33,800 -1,016 Descending Chicago Center
Thu 11:17:39 AM 41.4753 -90.6906 33° Northeast 449 517 32,500 -2,081 Descending Chicago Center
Thu 11:18:41 AM 41.6039 -90.5772 33° Northeast 459 528 29,500 -2,661 Descending Chicago Center
Thu 11:19:43 AM 41.7067 -90.4878 33° Northeast 443 510 27,000 -2,129 Descending Chicago Center
Thu 11:20:45 AM 41.8175 -90.4000 31° Northeast 443 510 25,100 -1,659 Descending Chicago Center
Thu 11:21:46 AM 41.9231 -90.3169 30° Northeast 442 509 23,600 -1,415 Descending Chicago Center
Thu 11:22:48 AM 42.0258 -90.2367 30° Northeast 432 497 22,200 -1,258 Descending Chicago Center
Thu 11:23:50 AM 42.1244 -90.1581 31° Northeast 420 483 21,000 -581 Descending Chicago Center
Thu 11:24:52 AM 42.2258 -90.0781 30° Northeast 423 487 21,000 -48 Level Chicago Center
Thu 11:25:54 AM 42.3428 -89.9833 31° Northeast 412 474 20,900 -1,548 Descending Chicago Center
Thu 11:26:56 AM 42.4397 -89.9069 30° Northeast 393 452 17,800 -3,339 Descending Chicago Center
Thu 11:27:58 AM 42.5297 -89.8336 31° Northeast 382 440 14,000 -3,194 Descending Chicago Center
Thu 11:29:00 AM 42.6158 -89.7639 31° Northeast 366 421 11,200 -1,403 Descending Chicago Center
Thu 11:30:02 AM 42.6944 -89.6997 31° Northeast 337 388 11,100 -98 Descending Chicago Center
Thu 11:31:03 AM 42.7728 -89.6372 30° Northeast 328 377 11,000 -1,024 Descending Chicago Center
Thu 11:32:05 AM 42.8483 -89.5753 31° Northeast 276 318 9,000 -1,984 Descending Chicago Center
Thu 11:33:07 AM 42.8725 -89.4872 69° East 279 321 6,900 -1,694 Descending Chicago Center
Thu 11:34:09 AM 42.8806 -89.3903 83° East 264 304 5,500 -919 Descending Chicago Center
Thu 11:35:11 AM 42.9403 -89.3575 22° Northeast 237 273 5,000 -484 Descending Chicago Center

Login

Don't have an account? Register now (free) for customized features, flight alerts, and more!